LTAU/ASR METAR and TAF weather

Enter ICAO airport designator
Station Type Date Time Source
LTAU METAR 2020/03/28 09:20 UTC NOAA

LTAU 280920Z 30009KT 260V320 9999 BKN035 BKN080 13/05 Q1008 TEMPO FM1000 14015G25KT


Station Type Date Time Source
LTAU Decoded METAR 2020/03/28 09:20 UTC NOAA

Kayseri / Erkilet, Turkey (LTAU) 38-47N 035-29E 1054M
Mar 28, 2020 - 05:20 AM EDT / 2020.03.28 0920 UTC
Wind: from the WNW (300 degrees) at 10 MPH (9 KT) (direction variable):0
Visibility: greater than 7 mile(s):0
Sky conditions: mostly cloudy
Temperature: 55 F (13 C)
Dew Point: 41 F (5 C)
Relative Humidity: 58%
Pressure (altimeter): 29.77 in. Hg (1008 hPa)
ob: LTAU 280920Z 30009KT 260V320 9999 BKN035 BKN080 13/05 Q1008 TEMPO FM1000 14015G25KT
cycle: 9

Station Type Date Time Source
LTAU TAF 2020/03/28 09:00 UTC NOAA

TAF
AMD LTAU 280938Z 2809/2906 27008KT 9999 BKN033 BKN080
TEMPO 2810/2814 27015G25KT -SHRA FEW025CB BKN030
TEMPO 2815/2819 -SHRA
TEMPO 2820/2824 -SHRA
BECMG 2900/2903 -RA SCT012 BKN025 OVC080

Example: see airport list